Time;durP1;ratioP1;P1;durP2;ratioP2;P2;SDS_P1;SDS_P2;PMS_P1;PMS_P2;Temp;Humidity;BMP_temperature;BMP_pressure;BME280_temperature;BME280_humidity;BME280_pressure;Samples;Min_cycle;Max_cycle;Signal;HPM_P1;HPM_P2
2022/08/15 00:00:13;;;;;;;4.30;2.72;;;;;;;21.39;63.68;95257.75;5055419;28;20553;-74
2022/08/15 00:02:44;;;;;;;7.57;3.10;;;;;;;21.39;63.99;95249.75;5071751;28;20062;-75
2022/08/15 00:05:18;;;;;;;6.15;2.97;;;;;;;21.29;64.56;95246.88;5090328;28;20055;-76
2022/08/15 00:07:44;;;;;;;10.10;3.67;;;;;;;21.24;65.38;95240.69;5073456;28;20048;-76
2022/08/15 00:10:11;;;;;;;5.35;2.80;;;;;;;21.28;65.22;95241.81;5071242;28;20032;-75
2022/08/15 00:12:39;;;;;;;5.70;3.20;;;;;;;21.35;65.46;95245.94;5078490;28;20110;-76
2022/08/15 00:15:11;;;;;;;5.20;2.92;;;;;;;21.29;65.46;95238.88;5073657;28;20477;-76
2022/08/15 00:17:38;;;;;;;9.45;3.00;;;;;;;21.35;65.43;95243.25;5072413;28;20100;-74
2022/08/15 00:20:06;;;;;;;8.45;3.47;;;;;;;21.34;66.23;95249.66;5068303;28;20032;-76
2022/08/15 00:22:32;;;;;;;4.50;2.83;;;;;;;21.36;66.26;95252.91;5080667;28;20050;-76
2022/08/15 00:24:58;;;;;;;8.02;3.00;;;;;;;21.27;67.10;95246.34;5085459;28;20036;-76
2022/08/15 00:27:24;;;;;;;6.47;3.10;;;;;;;21.18;67.91;95251.31;5084908;28;20044;-73
2022/08/15 00:29:51;;;;;;;6.75;3.30;;;;;;;21.25;67.23;95245.78;5089076;28;20385;-76
2022/08/15 00:32:19;;;;;;;5.20;3.08;;;;;;;21.22;68.21;95250.81;5085216;28;20036;-76
2022/08/15 00:34:47;;;;;;;8.43;3.20;;;;;;;21.21;68.66;95254.56;5084623;28;20084;-76
2022/08/15 00:37:13;;;;;;;7.40;3.55;;;;;;;21.17;68.88;95252.38;5079867;28;20032;-75
2022/08/15 00:39:39;;;;;;;5.00;3.03;;;;;;;21.12;69.41;95254.19;5084851;28;20055;-75
2022/08/15 00:42:06;;;;;;;6.13;3.20;;;;;;;21.11;69.86;95252.56;5097359;28;20024;-75
2022/08/15 00:44:40;;;;;;;5.93;2.97;;;;;;;21.07;70.51;95254.94;5068286;28;20020;-74
2022/08/15 00:47:26;;;;;;;4.45;2.67;;;;;;;21.10;71.13;95245.63;5065860;28;20024;-75
2022/08/15 00:49:52;;;;;;;5.93;3.15;;;;;;;21.02;71.95;95254.88;5082815;28;20523;-74
2022/08/15 00:52:28;;;;;;;6.82;3.10;;;;;;;21.05;72.20;95246.34;5077292;28;20028;-75
2022/08/15 00:55:12;;;;;;;5.65;3.25;;;;;;;21.02;72.67;95248.72;5071015;28;20024;-76
2022/08/15 00:57:42;;;;;;;5.55;3.25;;;;;;;20.97;73.91;95248.66;5076479;28;20040;-76
2022/08/15 01:00:20;;;;;;;5.28;3.05;;;;;;;20.90;74.13;95252.31;5068908;28;20038;-76
2022/08/15 01:02:46;;;;;;;5.30;2.92;;;;;;;21.03;73.37;95253.03;5069481;28;21088;-74
2022/08/15 01:05:14;;;;;;;5.50;2.70;;;;;;;21.03;73.74;95255.69;5051699;28;20032;-76
2022/08/15 01:07:41;;;;;;;5.38;3.22;;;;;;;21.03;74.11;95247.69;5077975;28;20039;-75
2022/08/15 01:10:08;;;;;;;7.63;3.00;;;;;;;21.00;74.71;95248.16;5070443;28;20413;-73
2022/08/15 01:12:36;;;;;;;4.22;2.80;;;;;;;20.99;74.75;95244.66;5070591;28;20088;-75
2022/08/15 01:15:06;;;;;;;5.53;2.78;;;;;;;20.97;75.20;95246.78;5071231;28;20040;-75
2022/08/15 01:17:33;;;;;;;6.32;3.05;;;;;;;20.93;74.85;95245.69;5072891;28;20412;-75
2022/08/15 01:20:05;;;;;;;7.43;3.10;;;;;;;20.94;74.70;95242.75;5073999;28;20092;-76
2022/08/15 01:22:50;;;;;;;11.88;3.47;;;;;;;20.95;74.99;95241.69;5078213;28;20042;-73
2022/08/15 01:25:38;;;;;;;5.80;3.50;;;;;;;20.92;75.16;95242.22;5084501;28;20064;-76
2022/08/15 01:28:09;;;;;;;7.07;2.92;;;;;;;20.84;75.67;95242.63;5083899;28;20032;-76
2022/08/15 01:30:44;;;;;;;8.10;3.63;;;;;;;20.82;76.05;95239.38;5086200;28;20030;-76
2022/08/15 01:33:11;;;;;;;6.80;3.33;;;;;;;20.81;76.29;95237.78;5081917;28;20034;-76
2022/08/15 01:35:37;;;;;;;5.78;2.67;;;;;;;20.80;76.56;95235.34;5083130;28;20035;-76
2022/08/15 01:38:24;;;;;;;6.28;3.45;;;;;;;20.80;76.69;95246.06;5083121;28;20032;-76
2022/08/15 01:41:18;;;;;;;6.82;3.15;;;;;;;20.81;76.60;95244.97;5061458;28;20032;-76
2022/08/15 01:44:08;;;;;;;9.40;3.30;;;;;;;20.80;77.15;95251.41;5083305;28;20032;-75
2022/08/15 01:46:41;;;;;;;9.48;3.33;;;;;;;20.70;78.12;95252.88;5081246;28;20032;-76
2022/08/15 01:49:14;;;;;;;6.97;3.33;;;;;;;20.74;78.31;95255.84;5083844;28;20060;-76
2022/08/15 01:51:42;;;;;;;6.05;3.13;;;;;;;20.67;79.57;95257.91;5080237;28;20044;-76
2022/08/15 01:54:10;;;;;;;10.13;3.60;;;;;;;20.63;80.27;95256.78;5073513;28;20089;-76
2022/08/15 01:56:40;;;;;;;5.05;3.47;;;;;;;20.54;82.01;95256.38;5070906;28;21419;-76
2022/08/15 01:59:11;;;;;;;6.93;3.30;;;;;;;20.57;82.98;95263.09;5071818;28;20044;-76
2022/08/15 02:01:53;;;;;;;6.50;3.53;;;;;;;20.52;84.37;95260.34;5074096;28;20035;-76
2022/08/15 02:04:41;;;;;;;7.28;3.50;;;;;;;20.44;86.60;95261.53;5074534;28;20028;-75
2022/08/15 02:07:21;;;;;;;9.07;3.60;;;;;;;20.39;88.18;95256.94;5091569;28;20094;-75
2022/08/15 02:09:54;;;;;;;7.15;3.67;;;;;;;20.35;89.63;95263.00;5064172;28;20126;-75
2022/08/15 02:12:33;;;;;;;5.88;3.17;;;;;;;20.22;91.34;95262.31;5078497;28;20481;-76
2022/08/15 02:15:04;;;;;;;5.65;3.00;;;;;;;20.18;93.66;95260.34;5080783;28;20030;-74
2022/08/15 02:17:29;;;;;;;7.95;3.45;;;;;;;20.07;96.46;95262.03;5080126;28;20673;-75
2022/08/15 02:19:58;;;;;;;8.40;4.00;;;;;;;20.21;96.73;95259.84;5074246;28;20036;-76
2022/08/15 02:22:26;;;;;;;5.80;3.67;;;;;;;20.15;98.14;95264.28;5079545;28;20054;-74
2022/08/15 02:24:58;;;;;;;7.75;3.60;;;;;;;20.14;99.86;95265.34;5069179;28;20081;-75
2022/08/15 02:27:25;;;;;;;6.65;4.05;;;;;;;20.17;99.88;95261.41;5082491;28;20182;-76
2022/08/15 02:29:51;;;;;;;5.38;3.45;;;;;;;20.07;100.00;95264.72;5055324;28;20032;-76
2022/08/15 02:32:18;;;;;;;6.18;3.53;;;;;;;20.06;100.00;95270.31;5061094;28;20016;-76
2022/08/15 02:34:47;;;;;;;5.50;3.60;;;;;;;19.90;100.00;95270.03;5101210;28;20499;-75
2022/08/15 02:37:19;;;;;;;6.05;3.47;;;;;;;19.93;100.00;95274.09;5068432;28;20478;-76
2022/08/15 02:39:48;;;;;;;6.80;3.95;;;;;;;19.89;100.00;95271.09;5084515;28;20027;-76
2022/08/15 02:42:19;;;;;;;7.13;3.92;;;;;;;19.90;100.00;95274.56;5084425;28;20024;-76
2022/08/15 02:44:50;;;;;;;7.00;4.28;;;;;;;19.91;100.00;95282.31;5101347;28;20028;-76
2022/08/15 02:47:18;;;;;;;7.28;3.53;;;;;;;19.89;100.00;95278.28;5067689;28;20051;-76
2022/08/15 02:49:46;;;;;;;5.50;3.40;;;;;;;19.80;100.00;95282.41;5084019;28;20032;-76
2022/08/15 02:52:12;;;;;;;7.00;3.75;;;;;;;19.87;100.00;95283.84;5082939;28;20134;-75
2022/08/15 02:54:39;;;;;;;6.18;3.80;;;;;;;19.83;100.00;95285.41;5077143;28;20367;-75
2022/08/15 02:57:09;;;;;;;10.07;4.05;;;;;;;19.84;100.00;95287.00;5072884;28;20114;-74
2022/08/15 02:59:37;;;;;;;7.18;4.13;;;;;;;19.82;100.00;95286.44;5080120;28;20047;-75
2022/08/15 03:02:08;;;;;;;5.88;3.83;;;;;;;19.76;100.00;95285.53;5076018;28;20118;-74
2022/08/15 03:04:35;;;;;;;5.80;3.40;;;;;;;19.76;100.00;95282.88;5073919;28;20028;-75
2022/08/15 03:07:02;;;;;;;5.13;3.47;;;;;;;19.76;100.00;95287.41;5080510;28;20389;-76
2022/08/15 03:09:28;;;;;;;7.85;3.80;;;;;;;19.67;100.00;95278.16;5074542;28;20044;-75
2022/08/15 03:12:00;;;;;;;6.40;3.65;;;;;;;19.72;100.00;95284.41;5058368;28;20079;-74
2022/08/15 03:14:36;;;;;;;5.43;3.00;;;;;;;19.71;100.00;95276.63;5074734;28;20071;-75
2022/08/15 03:17:10;;;;;;;6.18;3.42;;;;;;;19.74;100.00;95284.16;5072414;28;20864;-73
2022/08/15 03:19:44;;;;;;;9.35;4.13;;;;;;;19.68;100.00;95283.25;5055783;28;20503;-75
2022/08/15 03:22:12;;;;;;;6.47;3.22;;;;;;;19.67;100.00;95284.31;5075364;28;20564;-75
2022/08/15 03:24:42;;;;;;;6.40;3.78;;;;;;;19.65;100.00;95277.59;5083881;28;20052;-75
2022/08/15 03:27:09;;;;;;;7.47;4.57;;;;;;;19.67;100.00;95273.63;5086784;28;20070;-75
2022/08/15 03:29:35;;;;;;;7.13;4.10;;;;;;;19.66;100.00;95265.88;5066961;28;20473;-75
2022/08/15 03:32:10;;;;;;;6.53;3.78;;;;;;;19.60;100.00;95269.47;5095132;28;20037;-76
2022/08/15 03:34:36;;;;;;;9.85;4.03;;;;;;;19.61;100.00;95271.88;5087201;28;20024;-76
2022/08/15 03:37:02;;;;;;;5.70;3.50;;;;;;;19.60;100.00;95278.28;5084849;28;20035;-76
2022/08/15 03:39:28;;;;;;;7.07;3.80;;;;;;;19.57;100.00;95270.75;5084994;28;20024;-76
2022/08/15 03:41:54;;;;;;;7.82;3.80;;;;;;;19.49;100.00;95274.63;5088850;28;20039;-76
2022/08/15 03:44:20;;;;;;;7.63;4.28;;;;;;;19.42;100.00;95273.16;5084115;28;20378;-76
2022/08/15 03:46:45;;;;;;;7.97;4.05;;;;;;;19.48;100.00;95281.00;5082803;28;20032;-75
2022/08/15 03:49:13;;;;;;;7.65;4.10;;;;;;;19.53;100.00;95270.44;5084608;28;20033;-75
2022/08/15 03:51:40;;;;;;;9.77;3.60;;;;;;;19.54;100.00;95271.22;5086482;28;20028;-76
2022/08/15 03:54:10;;;;;;;6.15;3.40;;;;;;;19.56;100.00;95274.47;5075141;28;20028;-74
2022/08/15 03:56:37;;;;;;;8.77;3.85;;;;;;;19.48;100.00;95278.34;5075363;28;20048;-75
2022/08/15 03:59:07;;;;;;;8.43;4.00;;;;;;;19.46;100.00;95285.75;5074471;28;20036;-75
2022/08/15 04:01:36;;;;;;;7.10;4.07;;;;;;;19.46;100.00;95288.44;5061378;28;20055;-75
2022/08/15 04:04:05;;;;;;;7.93;3.67;;;;;;;19.45;100.00;95283.31;5075531;28;20029;-75
2022/08/15 04:06:41;;;;;;;8.27;4.35;;;;;;;19.49;100.00;95285.28;5093653;28;20401;-74
2022/08/15 04:09:08;;;;;;;10.85;3.90;;;;;;;19.46;100.00;95287.63;5074204;28;20114;-75
2022/08/15 04:11:36;;;;;;;6.22;3.53;;;;;;;19.45;100.00;95284.16;5059548;28;20044;-73
2022/08/15 04:14:09;;;;;;;6.30;3.80;;;;;;;19.31;100.00;95294.28;5060299;28;20584;-73
2022/08/15 04:16:35;;;;;;;7.55;4.18;;;;;;;19.38;100.00;95293.31;5073850;28;20036;-73
2022/08/15 04:19:02;;;;;;;6.18;3.47;;;;;;;19.35;100.00;95299.97;5060480;28;20541;-75
2022/08/15 04:21:30;;;;;;;7.40;3.63;;;;;;;19.36;100.00;95304.22;5078495;28;20032;-75
2022/08/15 04:23:56;;;;;;;8.70;3.90;;;;;;;19.33;100.00;95299.38;5081543;28;20024;-75
2022/08/15 04:26:22;;;;;;;9.43;3.83;;;;;;;19.29;100.00;95304.38;5083731;28;20032;-75
2022/08/15 04:28:47;;;;;;;7.30;4.03;;;;;;;19.31;100.00;95298.78;5084167;28;20067;-75
2022/08/15 04:31:18;;;;;;;8.25;3.50;;;;;;;19.38;100.00;95304.78;5064588;28;20028;-75
2022/08/15 04:33:46;;;;;;;5.70;3.75;;;;;;;19.27;100.00;95308.31;5069621;28;20032;-75
2022/08/15 04:36:16;;;;;;;8.18;3.90;;;;;;;19.28;100.00;95308.09;5085982;28;20188;-74
2022/08/15 04:38:44;;;;;;;6.07;3.45;;;;;;;19.22;100.00;95313.56;5086719;28;20122;-73
2022/08/15 04:41:11;;;;;;;8.25;3.67;;;;;;;19.35;100.00;95315.13;5085120;28;20170;-74
2022/08/15 04:43:40;;;;;;;10.18;4.00;;;;;;;19.27;100.00;95319.78;5082495;28;20382;-74
2022/08/15 04:46:09;;;;;;;7.15;3.95;;;;;;;19.32;100.00;95311.09;5068632;28;20028;-74
2022/08/15 04:48:36;;;;;;;8.00;3.85;;;;;;;19.34;100.00;95321.50;5076025;28;20480;-74
2022/08/15 04:51:04;;;;;;;5.60;3.30;;;;;;;19.32;100.00;95311.09;5071549;28;20121;-73
2022/08/15 04:53:33;;;;;;;8.27;3.58;;;;;;;19.35;100.00;95310.63;5091995;28;20020;-75
2022/08/15 04:56:02;;;;;;;10.23;3.80;;;;;;;19.42;100.00;95313.97;5078319;28;20032;-74
2022/08/15 04:58:31;;;;;;;8.55;3.40;;;;;;;19.34;100.00;95303.66;5089424;28;20033;-76
2022/08/15 05:01:02;;;;;;;4.43;3.20;;;;;;;19.30;100.00;95313.16;5073956;28;20028;-75
2022/08/15 05:03:32;;;;;;;8.05;3.45;;;;;;;19.35;100.00;95325.78;5073924;28;21252;-75
2022/08/15 05:06:03;;;;;;;4.65;2.95;;;;;;;19.38;100.00;95323.44;5074849;28;20138;-75
2022/08/15 05:08:33;;;;;;;9.35;3.47;;;;;;;19.41;100.00;95328.31;5062793;28;20063;-74
2022/08/15 05:11:08;;;;;;;8.27;3.47;;;;;;;19.44;100.00;95333.19;5078280;28;20024;-74
2022/08/15 05:13:36;;;;;;;6.05;3.22;;;;;;;19.50;100.00;95324.22;5077281;28;20031;-75
2022/08/15 05:16:07;;;;;;;6.70;3.35;;;;;;;19.43;100.00;95326.22;5073800;28;20031;-75
2022/08/15 05:18:39;;;;;;;6.30;3.30;;;;;;;19.47;100.00;95321.22;5079245;28;20066;-73
2022/08/15 05:21:08;;;;;;;7.35;3.20;;;;;;;19.41;100.00;95322.19;5075713;28;20935;-75
2022/08/15 05:23:35;;;;;;;8.25;2.83;;;;;;;19.44;100.00;95325.19;5076426;28;20032;-74
2022/08/15 05:26:03;;;;;;;7.65;3.25;;;;;;;19.42;100.00;95315.81;5051676;28;20085;-75
2022/08/15 05:28:31;;;;;;;5.95;2.53;;;;;;;19.48;100.00;95312.19;5052831;28;20074;-75
2022/08/15 05:30:58;;;;;;;7.18;2.58;;;;;;;19.51;100.00;95312.50;5088020;28;20535;-74
2022/08/15 05:33:29;;;;;;;5.43;3.13;;;;;;;19.58;100.00;95314.22;5055777;28;20028;-74
2022/08/15 05:36:02;;;;;;;5.32;2.75;;;;;;;19.57;100.00;95310.75;5071578;28;20114;-75
2022/08/15 05:38:55;;;;;;;5.18;2.60;;;;;;;19.76;100.00;95304.22;5078056;28;20028;-75
2022/08/15 05:41:41;;;;;;;5.65;2.38;;;;;;;19.79;100.00;95305.59;5055362;28;20597;-74
2022/08/15 05:44:11;;;;;;;5.80;3.03;;;;;;;19.85;100.00;95306.50;5072121;28;20028;-75
2022/08/15 05:46:52;;;;;;;6.55;2.72;;;;;;;19.96;100.00;95306.44;5072427;28;20047;-75
2022/08/15 05:49:36;;;;;;;6.88;3.05;;;;;;;20.15;100.00;95292.84;5052104;28;20036;-75
2022/08/15 05:52:35;;;;;;;4.72;2.63;;;;;;;20.18;100.00;95303.84;5068828;28;20103;-75
2022/08/15 05:55:23;;;;;;;4.00;2.33;;;;;;;20.32;100.00;95309.72;5083207;28;20036;-75
2022/08/15 05:57:56;;;;;;;5.68;2.80;;;;;;;20.29;100.00;95309.34;5075073;28;20066;-75
2022/08/15 06:00:27;;;;;;;4.05;2.47;;;;;;;20.41;100.00;95321.59;5083181;28;20032;-75
2022/08/15 06:03:17;;;;;;;9.10;2.80;;;;;;;20.47;100.00;95322.47;5082463;28;20033;-75
2022/08/15 06:05:49;;;;;;;4.10;2.33;;;;;;;20.47;100.00;95317.94;5066558;28;20032;-74
2022/08/15 06:08:17;;;;;;;6.10;2.42;;;;;;;20.65;100.00;95316.09;5083047;28;20074;-75
2022/08/15 06:10:49;;;;;;;4.72;2.42;;;;;;;20.76;100.00;95322.38;5082155;28;20099;-73
2022/08/15 06:13:31;;;;;;;4.93;1.95;;;;;;;20.94;100.00;95322.94;5083865;28;20089;-75
2022/08/15 06:16:25;;;;;;;4.05;2.17;;;;;;;20.93;100.00;95329.34;5082713;28;20028;-74
2022/08/15 06:18:54;;;;;;;4.38;2.50;;;;;;;20.84;100.00;95324.66;5082229;28;20047;-73
2022/08/15 06:21:32;;;;;;;9.25;2.95;;;;;;;21.05;100.00;95325.75;5082342;28;20102;-75
2022/08/15 06:24:14;;;;;;;5.03;2.72;;;;;;;21.29;100.00;95334.34;5073924;28;20550;-74
2022/08/15 06:26:49;;;;;;;3.55;2.30;;;;;;;22.11;97.70;95309.31;5081440;28;20044;-73
2022/08/15 06:29:49;;;;;;;5.68;2.40;;;;;;;22.68;93.25;95313.25;5079101;28;20035;-75
2022/08/15 06:32:38;;;;;;;4.63;2.15;;;;;;;22.89;91.04;95314.19;5087152;28;20035;-75
2022/08/15 06:35:21;;;;;;;3.78;1.70;;;;;;;22.96;89.73;95302.19;5088761;28;20149;-75
2022/08/15 06:38:14;;;;;;;4.78;1.70;;;;;;;23.02;89.67;95313.75;5086971;28;20063;-74
2022/08/15 06:40:53;;;;;;;3.50;2.00;;;;;;;22.48;92.32;95319.28;5075014;28;20051;-75
2022/08/15 06:43:20;;;;;;;4.90;1.85;;;;;;;22.53;91.92;95319.31;5077025;28;20056;-75
2022/08/15 06:46:05;;;;;;;3.80;2.17;;;;;;;22.64;90.97;95318.34;5084560;28;21317;-75
2022/08/15 06:48:35;;;;;;;5.07;2.28;;;;;;;22.43;91.96;95319.22;5087311;28;20117;-75
2022/08/15 06:51:05;;;;;;;3.65;2.03;;;;;;;22.26;94.28;95322.03;5080591;28;20057;-74
2022/08/15 06:53:44;;;;;;;4.20;1.90;;;;;;;22.00;96.83;95329.81;5063203;28;20110;-76
2022/08/15 06:56:19;;;;;;;3.35;1.73;;;;;;;21.54;98.37;95321.31;5064884;28;20039;-75
2022/08/15 06:58:58;;;;;;;6.43;2.60;;;;;;;21.33;99.94;95325.59;5074329;28;20036;-76
2022/08/15 07:01:53;;;;;;;7.35;3.70;;;;;;;21.10;100.00;95320.47;5065491;28;20028;-73
2022/08/15 07:04:38;;;;;;;4.38;2.45;;;;;;;20.85;100.00;95320.94;5078742;28;20032;-75
2022/08/15 07:07:11;;;;;;;4.82;2.58;;;;;;;20.77;100.00;95324.03;5080066;28;20031;-74
2022/08/15 07:10:00;;;;;;;2.80;1.90;;;;;;;20.91;100.00;95327.97;5064976;28;20036;-74
2022/08/15 07:12:34;;;;;;;4.70;2.28;;;;;;;20.84;100.00;95316.66;5078636;28;20032;-74
2022/08/15 07:15:37;;;;;;;3.63;1.92;;;;;;;20.75;100.00;95318.91;5091565;28;20145;-75
2022/08/15 07:18:16;;;;;;;3.97;2.30;;;;;;;21.04;100.00;95313.44;5079636;28;20032;-75
2022/08/15 07:20:42;;;;;;;7.15;2.53;;;;;;;21.17;100.00;95305.88;5079022;28;20036;-74
2022/08/15 07:23:19;;;;;;;3.08;2.10;;;;;;;21.27;100.00;95310.53;5077810;28;20143;-75
2022/08/15 07:25:48;;;;;;;4.25;2.10;;;;;;;21.30;100.00;95315.38;5076309;28;20036;-76
2022/08/15 07:28:18;;;;;;;4.93;2.22;;;;;;;21.17;100.00;95310.41;5069088;28;20055;-76
2022/08/15 07:30:54;;;;;;;3.17;1.60;;;;;;;21.26;100.00;95314.28;5086521;28;20437;-74
2022/08/15 07:33:37;;;;;;;3.15;1.80;;;;;;;21.18;100.00;95312.00;5083060;28;20024;-75
2022/08/15 07:36:17;;;;;;;3.72;2.00;;;;;;;21.49;100.00;95309.72;5085572;28;20066;-75
2022/08/15 07:38:43;;;;;;;4.28;2.00;;;;;;;21.44;100.00;95312.38;5085356;28;20040;-73
2022/08/15 07:41:26;;;;;;;3.95;2.05;;;;;;;21.49;100.00;95310.53;5068037;28;20024;-75
2022/08/15 07:44:18;;;;;;;5.30;2.55;;;;;;;22.78;93.02;95307.97;5097389;28;20039;-75
2022/08/15 07:46:58;;;;;;;2.88;1.80;;;;;;;23.03;89.11;95315.38;5084238;28;20032;-75
2022/08/15 07:49:34;;;;;;;4.18;2.00;;;;;;;22.75;90.50;95321.88;5084597;28;20031;-74
2022/08/15 07:52:16;;;;;;;;;;;;;;;22.90;89.11;95329.22;5085895;28;20039;-75
2022/08/15 07:54:45;;;;;;;5.50;2.95;;;;;;;23.70;84.62;95321.84;5070763;28;20296;-73
2022/08/15 07:57:25;;;;;;;5.13;2.00;;;;;;;24.22;80.60;95315.53;5077471;28;20142;-74
2022/08/15 08:00:13;;;;;;;3.45;1.90;;;;;;;24.33;79.69;95316.31;5064150;28;20115;-75
2022/08/15 08:03:00;;;;;;;4.32;2.10;;;;;;;23.69;81.62;95321.06;5094790;28;20056;-74
2022/08/15 08:06:02;;;;;;;4.22;1.77;;;;;;;23.41;85.25;95321.47;5054208;28;20155;-73
2022/08/15 08:08:39;;;;;;;4.53;2.15;;;;;;;23.53;84.49;95335.44;5059420;28;20044;-75
2022/08/15 08:11:34;;;;;;;3.95;1.88;;;;;;;23.86;82.00;95334.25;5076412;28;20039;-74
2022/08/15 08:14:14;;;;;;;4.65;2.13;;;;;;;23.76;81.94;95332.34;5061454;28;20048;-74
2022/08/15 08:16:59;;;;;;;3.75;2.42;;;;;;;24.45;77.44;95328.47;5075941;28;20129;-74
2022/08/15 08:19:37;;;;;;;2.38;1.60;;;;;;;24.77;74.81;95323.84;5072571;28;20052;-75
2022/08/15 08:22:18;;;;;;;4.50;2.03;;;;;;;25.66;68.94;95332.25;5069724;28;20637;-76
2022/08/15 08:24:59;;;;;;;4.78;1.80;;;;;;;25.35;68.05;95325.09;5067438;28;20046;-75
2022/08/15 08:27:25;;;;;;;3.78;1.75;;;;;;;25.42;67.06;95329.38;5066398;28;20028;-76
2022/08/15 08:30:12;;;;;;;3.83;2.03;;;;;;;24.74;68.69;95330.56;5085358;28;20792;-75
2022/08/15 08:32:43;;;;;;;5.88;1.98;;;;;;;25.73;65.82;95335.44;5081112;28;20032;-75
2022/08/15 08:35:24;;;;;;;2.20;1.40;;;;;;;25.94;62.02;95334.28;5078876;28;20044;-75
2022/08/15 08:37:50;;;;;;;4.15;1.70;;;;;;;25.75;61.04;95335.94;5055765;28;20025;-75
2022/08/15 08:43:15;;;;;;;2.78;1.35;;;;;;;25.38;62.54;95338.00;5075197;28;20411;-75
2022/08/15 08:46:04;;;;;;;2.78;1.70;;;;;;;24.84;66.48;95344.00;5077745;28;20543;-76
2022/08/15 08:48:41;;;;;;;2.97;1.60;;;;;;;24.59;67.16;95344.03;5063705;28;20024;-75
2022/08/15 08:51:34;;;;;;;4.15;1.70;;;;;;;25.74;62.44;95345.13;5078651;28;20149;-74
2022/08/15 08:54:23;;;;;;;4.45;1.75;;;;;;;27.09;58.02;95340.13;5075723;28;20063;-73
2022/08/15 08:56:53;;;;;;;5.03;1.77;;;;;;;26.50;57.41;95342.00;5075131;28;20068;-74
2022/08/15 08:59:50;;;;;;;4.75;2.10;;;;;;;27.46;54.49;95342.19;5076831;28;20063;-75
2022/08/15 09:02:26;;;;;;;7.20;1.98;;;;;;;26.24;58.95;95345.94;5068321;28;20051;-74
2022/08/15 09:04:57;;;;;;;3.78;1.90;;;;;;;27.70;53.54;95346.78;5080168;28;20114;-76
2022/08/15 09:07:30;;;;;;;5.28;2.00;;;;;;;28.02;51.21;95342.59;5085237;28;20097;-76
2022/08/15 09:10:00;;;;;;;4.45;1.80;;;;;;;28.11;49.65;95324.63;5089057;28;20631;-76
2022/08/15 09:15:17;;;;;;;3.13;1.63;;;;;;;27.52;50.39;95339.44;5084426;28;20119;-76
2022/08/15 09:17:51;;;;;;;3.40;1.70;;;;;;;26.36;54.96;95340.19;5084093;28;20032;-76
2022/08/15 09:20:22;;;;;;;3.58;1.80;;;;;;;26.34;56.53;95337.78;5086996;28;20035;-75
2022/08/15 09:22:49;;;;;;;3.33;1.77;;;;;;;27.82;50.16;95333.66;5083264;28;20029;-75
2022/08/15 09:25:15;;;;;;;2.53;1.40;;;;;;;27.84;48.45;95336.09;5085053;28;20084;-75
2022/08/15 09:27:49;;;;;;;3.13;1.60;;;;;;;27.89;47.88;95344.13;5084282;28;20039;-75
2022/08/15 09:30:18;;;;;;;4.28;1.58;;;;;;;27.38;46.50;95329.31;5086456;28;20050;-75
2022/08/15 09:32:54;;;;;;;3.05;1.67;;;;;;;28.25;46.25;95339.03;5085531;28;20096;-75
2022/08/15 09:35:29;;;;;;;2.90;1.60;;;;;;;28.52;44.55;95343.78;5083606;28;20036;-75
2022/08/15 09:38:22;;;;;;;3.10;1.55;;;;;;;28.25;42.11;95341.72;5084969;28;20024;-74
2022/08/15 09:41:02;;;;;;;2.85;1.50;;;;;;;28.98;42.21;95342.22;5084877;28;20059;-75
2022/08/15 09:43:42;;;;;;;2.80;1.73;;;;;;;28.64;44.36;95341.41;5083912;28;20124;-74
2022/08/15 09:47:02;;;;;;;3.30;1.70;;;;;;;28.13;47.73;95338.66;5079662;28;20058;-75
2022/08/15 09:50:01;;;;;;;1.80;1.40;;;;;;;28.23;46.88;95333.09;5058826;28;20029;-75
2022/08/15 09:52:42;;;;;;;2.53;1.27;;;;;;;28.89;43.39;95337.47;5074792;28;20047;-75
2022/08/15 09:55:44;;;;;;;2.70;1.38;;;;;;;28.42;44.93;95331.22;5083696;28;20493;-76
2022/08/15 09:58:24;;;;;;;2.45;1.45;;;;;;;28.96;42.34;95325.47;5078848;28;20123;-75
2022/08/15 10:01:20;;;;;;;2.95;1.75;;;;;;;28.31;43.68;95327.03;5081334;28;20032;-76
2022/08/15 10:03:45;;;;;;;3.55;1.52;;;;;;;29.80;40.34;95326.03;5079655;28;20032;-76
2022/08/15 10:06:13;;;;;;;4.82;1.80;;;;;;;29.84;39.62;95316.16;5082312;28;20031;-76
2022/08/15 10:08:51;;;;;;;2.75;1.33;;;;;;;29.33;39.91;95309.06;5081457;28;20489;-76
2022/08/15 10:11:24;;;;;;;2.70;1.70;;;;;;;29.56;39.89;95314.59;5084578;28;20035;-76
2022/08/15 10:14:01;;;;;;;2.47;1.52;;;;;;;29.65;40.60;95312.81;5082711;28;20035;-75
2022/08/15 10:17:04;;;;;;;4.53;1.67;;;;;;;29.30;39.64;95312.38;5066088;28;20485;-75
2022/08/15 10:19:37;;;;;;;3.95;1.45;;;;;;;30.18;37.84;95314.94;5078948;28;20048;-75
2022/08/15 10:22:22;;;;;;;2.17;1.40;;;;;;;30.55;37.47;95307.56;5079459;28;20040;-76
2022/08/15 10:25:16;;;;;;;3.88;1.58;;;;;;;30.40;36.89;95305.19;5080192;28;21340;-76
2022/08/15 10:28:19;;;;;;;2.78;1.60;;;;;;;29.52;38.53;95310.88;5082215;28;20140;-75
2022/08/15 10:31:06;;;;;;;3.58;1.45;;;;;;;29.74;37.85;95313.69;5079224;28;20040;-75
2022/08/15 10:33:32;;;;;;;3.42;1.65;;;;;;;29.42;37.98;95302.97;5081108;28;20178;-75
2022/08/15 10:36:13;;;;;;;2.80;1.50;;;;;;;30.21;36.88;95308.88;5081068;28;20008;-75
2022/08/15 10:38:45;;;;;;;2.63;1.48;;;;;;;29.93;35.90;95321.69;5079688;28;20123;-76
2022/08/15 10:41:41;;;;;;;3.83;1.67;;;;;;;29.33;37.23;95310.97;5081292;28;20144;-76
2022/08/15 10:44:23;;;;;;;2.88;1.63;;;;;;;30.11;35.76;95306.38;5071400;28;20400;-74
2022/08/15 10:47:32;;;;;;;3.72;1.60;;;;;;;29.51;37.21;95301.97;5075646;28;20060;-75
2022/08/15 10:50:14;;;;;;;2.15;1.20;;;;;;;29.79;36.86;95302.75;5021432;28;20711;-76
2022/08/15 10:53:13;;;;;;;;;;;;;;;30.61;35.85;95300.06;5060328;28;20059;-75
2022/08/15 10:55:40;;;;;;;3.22;1.63;;;;;;;31.56;34.60;95303.31;5057137;28;20676;-76
2022/08/15 10:58:32;;;;;;;2.33;1.23;;;;;;;31.86;33.96;95301.63;5077808;28;20028;-76
2022/08/15 11:01:06;;;;;;;4.33;1.83;;;;;;;31.87;33.83;95292.34;5080179;28;20083;-76
2022/08/15 11:03:47;;;;;;;2.75;1.75;;;;;;;30.48;36.00;95301.75;5078744;28;20497;-76
2022/08/15 11:06:16;;;;;;;2.65;1.60;;;;;;;31.79;34.44;95295.03;5079021;28;20125;-75
2022/08/15 11:08:55;;;;;;;4.07;1.92;;;;;;;30.65;35.50;95306.47;5082738;28;20396;-75
2022/08/15 11:11:25;;;;;;;4.05;1.58;;;;;;;29.94;36.85;95301.59;5058037;28;20028;-76
2022/08/15 11:13:57;;;;;;;2.90;1.50;;;;;;;29.01;38.59;95312.69;5078491;28;20521;-76
2022/08/15 11:16:35;;;;;;;2.38;1.63;;;;;;;29.66;36.99;95298.16;5081646;28;20031;-76
2022/08/15 11:19:32;;;;;;;3.22;2.22;;;;;;;31.21;34.80;95300.41;5087742;28;20059;-75
2022/08/15 11:22:02;;;;;;;3.10;1.77;;;;;;;30.85;34.65;95294.34;5083153;28;20032;-76
2022/08/15 11:24:30;;;;;;;3.47;1.67;;;;;;;30.96;35.01;95285.63;5081659;28;20118;-75
2022/08/15 11:27:23;;;;;;;3.75;1.80;;;;;;;30.84;35.37;95290.03;5083443;28;20062;-75
2022/08/15 11:29:51;;;;;;;2.15;1.40;;;;;;;30.51;36.25;95304.63;5084449;28;20032;-76
2022/08/15 11:32:28;;;;;;;2.42;1.60;;;;;;;30.35;36.27;95303.44;5083859;28;20943;-75
2022/08/15 11:34:55;;;;;;;2.58;1.58;;;;;;;31.52;34.32;95290.66;5082238;28;20052;-75
2022/08/15 11:37:24;;;;;;;3.75;1.88;;;;;;;31.57;34.27;95294.03;5084685;28;20119;-76
2022/08/15 11:40:06;;;;;;;3.25;1.50;;;;;;;31.65;34.57;95289.72;5084350;28;20304;-76
2022/08/15 11:42:39;;;;;;;2.40;1.52;;;;;;;32.04;33.70;95290.78;5077753;28;20032;-75
2022/08/15 11:45:17;;;;;;;2.65;1.70;;;;;;;31.06;34.07;95295.41;5084399;28;20028;-76
2022/08/15 11:48:10;;;;;;;3.72;1.75;;;;;;;32.83;32.16;95289.59;5085808;28;20036;-76
2022/08/15 11:50:39;;;;;;;3.83;1.67;;;;;;;33.05;31.54;95278.50;5083995;28;20046;-76
2022/08/15 11:53:08;;;;;;;3.80;2.10;;;;;;;32.79;31.65;95284.00;5084703;28;20040;-76
2022/08/15 11:55:34;;;;;;;4.00;1.85;;;;;;;32.74;31.00;95280.66;5084177;28;20055;-76
2022/08/15 11:58:04;;;;;;;6.57;2.17;;;;;;;32.97;30.61;95281.28;5084532;28;20260;-76
2022/08/15 12:00:50;;;;;;;2.97;1.90;;;;;;;32.52;31.68;95279.72;5086744;28;20031;-76
2022/08/15 12:03:22;;;;;;;2.30;1.73;;;;;;;32.41;31.83;95273.00;5087698;28;20397;-76
2022/08/15 12:05:53;;;;;;;2.15;1.83;;;;;;;33.66;30.03;95272.00;5084994;28;20047;-75
2022/08/15 12:08:27;;;;;;;1.98;1.50;;;;;;;33.12;30.43;95269.84;5071072;28;20066;-75
2022/08/15 12:11:14;;;;;;;6.00;2.35;;;;;;;34.21;29.52;95269.06;5089134;28;20508;-76
2022/08/15 12:13:53;;;;;;;2.75;2.13;;;;;;;32.55;31.27;95273.66;5080999;28;20043;-76